Kiester, Minnesota
Current Conditions -  °F | °C
As of 12:14 AM on Saturday 25 Oct 2014 (Local Time) from KAEL Reporting Station
Clear Clear  
Wind Chill: 54°   Ceiling: Unl
Heat Index: 54°   Visibility: 10mi
Dew Point: 46°   Wind: 0mph
Humidity: 77%   Direction: NA
Pressure: 29.94"   Gusts: NA
Location:  43.54°N, 93.71°W
Report Text: KAEL 250514Z AUTO 00000KT 10SM CLR 12/08 A2994 RMK AO2
Loading
Personal Weather Stations






























Interactive Weather Map
Tropical Storm Tracking
New forecast layout! Learn more

10-Day Weather Forecast

Advertisements
Track Severe Weather on mobile